Sierra-at-tahoe, California
Current Conditions -  °F | °C
As of 4:53 PM on Friday 24 Oct 2014 (Local Time) from KTVL Reporting Station
Clear Clear  
Wind Chill: 19°   Ceiling: Unl
Heat Index: 19°   Visibility: 10mi
Dew Point: -9°   Wind: 18mph
Humidity: 14%   Direction: 200°SSW
Pressure: 30.05"   Gusts: 28mph
Location:  38.77°N, 120.16°W
Report Text: KTVL 242353Z AUTO 20016G24KT 10SM CLR 19/M09 A3005 RMK AO2 PK WND 18029/2314 SLP141 T01941089 10217 20194 56007
Loading
Personal Weather Stations






























Interactive Weather Map
Tropical Storm Tracking
New forecast layout! Learn more

10-Day Weather Forecast

Advertisements
Track Severe Weather on mobile